Time;durP1;ratioP1;P1;durP2;ratioP2;P2;SDS_P1;SDS_P2;PMS_P1;PMS_P2;Temp;Humidity;BMP_temperature;BMP_pressure;BME280_temperature;BME280_humidity;BME280_pressure;Samples;Min_cycle;Max_cycle;Signal;HPM_P1;HPM_P2
2021/07/22 00:05:50;;;;;;;4.68;3.85;;;25.70;96.40;;;;;;5076510;28;20107;-92
2021/07/22 00:12:03;;;;;;;3.78;3.40;;;25.70;96.50;;;;;;5074053;28;20074;-91
2021/07/22 00:14:29;;;;;;;4.13;3.22;;;25.70;96.50;;;;;;5055711;28;20071;-91
2021/07/22 00:16:55;;;;;;;3.50;3.20;;;25.70;96.50;;;;;;5026504;28;20508;-91
2021/07/22 00:19:28;;;;;;;4.20;3.42;;;25.70;96.50;;;;;;5039755;28;20028;-92
2021/07/22 00:21:53;;;;;;;5.07;3.67;;;25.70;96.50;;;;;;5056264;28;20037;-91
2021/07/22 00:31:06;;;;;;;3.42;3.13;;;25.70;96.60;;;;;;5087476;28;20066;-92
2021/07/22 00:36:54;;;;;;;4.03;3.35;;;25.70;96.60;;;;;;5096943;28;20051;-93
2021/07/22 00:39:20;;;;;;;3.45;3.15;;;25.70;96.60;;;;;;5076989;28;20025;-92
2021/07/22 00:41:48;;;;;;;3.33;3.03;;;25.70;96.60;;;;;;5079033;28;20039;-91
2021/07/22 00:44:23;;;;;;;3.40;3.10;;;25.70;96.60;;;;;;5048110;28;20032;-94
2021/07/22 00:50:43;;;;;;;4.22;3.58;;;25.70;96.60;;;;;;5094992;28;20051;-93
2021/07/22 00:56:32;;;;;;;3.22;2.88;;;25.70;96.60;;;;;;5080200;28;20101;-93
2021/07/22 00:59:00;;;;;;;3.60;3.10;;;25.70;96.60;;;;;;5072421;28;20115;-94
2021/07/22 01:01:26;;;;;;;3.15;2.85;;;25.70;96.60;;;;;;5057099;28;20036;-92
2021/07/22 01:04:01;;;;;;;3.75;3.15;;;25.70;96.60;;;;;;5059766;28;20033;-93
2021/07/22 01:10:09;;;;;;;3.33;3.00;;;25.70;96.60;;;;;;5077721;28;20103;-92
2021/07/22 01:16:15;;;;;;;3.08;2.67;;;25.70;96.60;;;;;;5076685;28;20389;-92
2021/07/22 01:28:54;;;;;;;3.10;2.80;;;25.70;96.50;;;;;;5078740;28;20032;-92
2021/07/22 01:31:24;;;;;;;3.13;2.67;;;25.60;96.50;;;;;;5059170;28;20037;-93
2021/07/22 01:33:50;;;;;;;3.65;2.90;;;25.60;96.50;;;;;;5059010;28;20083;-93
2021/07/22 01:36:22;;;;;;;3.03;2.83;;;25.60;96.40;;;;;;5075417;28;20028;-92
2021/07/22 01:38:53;;;;;;;3.53;3.03;;;25.60;96.40;;;;;;5048081;28;20032;-93
2021/07/22 01:41:19;;;;;;;2.65;2.42;;;25.60;96.40;;;;;;5075465;28;20024;-92
2021/07/22 01:44:25;;;;;;;3.25;2.70;;;25.60;96.30;;;;;;5076374;28;20029;-91
2021/07/22 01:50:26;;;;;;;2.83;2.55;;;25.60;96.30;;;;;;5078893;28;20139;-92
2021/07/22 01:56:17;;;;;;;3.00;2.70;;;25.60;96.20;;;;;;5080385;28;20396;-93
2021/07/22 02:02:12;;;;;;;4.22;2.60;;;25.60;96.30;;;;;;5076588;28;20071;-94
2021/07/22 02:04:39;;;;;;;3.17;2.63;;;25.60;96.30;;;;;;5061091;28;20075;-92
2021/07/22 02:07:06;;;;;;;2.65;2.45;;;25.50;96.20;;;;;;5058563;28;20116;-93
2021/07/22 02:09:31;;;;;;;2.65;2.45;;;25.60;96.30;;;;;;5074856;28;20470;-94
2021/07/22 02:12:01;;;;;;;3.10;2.72;;;25.60;96.30;;;;;;5058713;28;20039;-94
2021/07/22 02:14:27;;;;;;;2.70;2.45;;;25.60;96.20;;;;;;5078543;28;20051;-92
2021/07/22 02:17:00;;;;;;;2.58;2.38;;;25.50;96.20;;;;;;5074447;28;20078;-93
2021/07/22 02:19:29;;;;;;;2.97;2.45;;;25.60;96.20;;;;;;5041801;28;20136;-92
2021/07/22 02:21:54;;;;;;;2.80;2.60;;;25.50;96.20;;;;;;5041236;28;20450;-93
2021/07/22 02:24:20;;;;;;;2.55;2.35;;;25.50;96.10;;;;;;5061279;28;20037;-94
2021/07/22 02:33:30;;;;;;;2.47;2.28;;;25.50;96.10;;;;;;5040728;28;20055;-91
2021/07/22 02:35:57;;;;;;;2.63;2.42;;;25.50;96.10;;;;;;5061314;28;20025;-92
2021/07/22 02:38:22;;;;;;;2.65;2.40;;;25.50;96.10;;;;;;5058103;28;20113;-92
2021/07/22 02:40:50;;;;;;;2.40;2.10;;;25.50;96.10;;;;;;5042794;28;20033;-92
2021/07/22 02:43:31;;;;;;;2.90;2.58;;;25.50;96.10;;;;;;5079196;28;20033;-91
2021/07/22 02:49:23;;;;;;;2.88;2.50;;;25.50;96.10;;;;;;5076122;28;20070;-93
2021/07/22 02:55:20;;;;;;;2.40;2.20;;;25.50;96.10;;;;;;5077732;28;20169;-91
2021/07/22 02:57:46;;;;;;;2.90;2.22;;;25.40;96.00;;;;;;5050503;28;20032;-93
2021/07/22 03:00:12;;;;;;;2.22;2.03;;;25.40;96.00;;;;;;5035594;28;20029;-93
2021/07/22 03:02:37;;;;;;;2.42;2.22;;;25.50;96.00;;;;;;5043267;28;20039;-92
2021/07/22 03:05:14;;;;;;;2.50;2.30;;;25.40;96.00;;;;;;5058185;28;20028;-92
2021/07/22 03:07:44;;;;;;;2.55;2.35;;;25.50;96.00;;;;;;5058081;28;20090;-92
2021/07/22 03:10:12;;;;;;;2.40;2.20;;;25.50;96.00;;;;;;5057327;28;20024;-92
2021/07/22 03:13:00;;;;;;;2.47;2.28;;;25.50;96.00;;;;;;5040585;28;20124;-92
2021/07/22 03:15:36;;;;;;;;;;;;;;;;;;;;;
2021/07/22 03:18:20;;;;;;;2.08;1.92;;;25.40;95.90;;;;;;4997333;28;20372;-92
2021/07/22 03:21:01;;;;;;;;;;;;;;;;;;;;;
2021/07/22 03:23:39;;;;;;;1.90;1.80;;;25.40;95.90;;;;;;5075420;28;20425;-93
2021/07/22 03:26:37;;;;;;;2.80;2.47;;;25.40;95.90;;;;;;5009974;28;20050;-92
2021/07/22 03:32:25;;;;;;;2.78;2.20;;;25.40;95.80;;;;;;5054351;28;20028;-92
2021/07/22 03:34:51;;;;;;;2.50;2.28;;;25.40;95.80;;;;;;5009027;28;20037;-91
2021/07/22 03:37:16;;;;;;;2.70;2.50;;;25.40;95.80;;;;;;5036434;28;20029;-92
2021/07/22 03:39:42;;;;;;;2.05;1.85;;;25.40;95.80;;;;;;5036091;28;20029;-92
2021/07/22 03:42:08;;;;;;;2.00;1.90;;;25.40;95.80;;;;;;5020212;28;20029;-93
2021/07/22 03:44:36;;;;;;;2.42;2.10;;;25.40;95.80;;;;;;5039838;28;20029;-92
2021/07/22 03:47:07;;;;;;;2.30;2.10;;;25.40;95.80;;;;;;5054092;28;20021;-92
2021/07/22 03:49:57;;;;;;;;;;;;;;;;;;;;;
2021/07/22 03:56:03;;;;;;;3.10;2.80;;;25.40;95.80;;;;;;5015414;28;20048;-90
2021/07/22 03:59:00;;;;;;;2.50;2.30;;;25.40;95.70;;;;;;5024415;28;20051;-90
2021/07/22 04:01:37;;;;;;;2.40;2.20;;;25.30;95.70;;;;;;5044939;28;20081;-90
2021/07/22 04:04:08;;;;;;;3.00;2.70;;;25.30;95.70;;;;;;5041225;28;20079;-91
2021/07/22 04:06:50;;;;;;;2.40;2.20;;;25.30;95.70;;;;;;5042472;28;20013;-91
2021/07/22 04:09:57;;;;;;;2.55;2.35;;;25.30;95.70;;;;;;5054119;28;20064;-92
2021/07/22 04:12:27;;;;;;;2.97;2.63;;;25.30;95.70;;;;;;5053113;28;20033;-90
2021/07/22 04:15:05;;;;;;;2.60;2.40;;;25.30;95.70;;;;;;5069085;28;20033;-91
2021/07/22 04:17:49;;;;;;;2.58;2.38;;;25.30;95.70;;;;;;5054030;28;20029;-92
2021/07/22 04:30:40;;;;;;;2.75;2.40;;;25.20;95.60;;;;;;5053496;28;20107;-92
2021/07/22 04:36:34;;;;;;;2.67;2.47;;;25.20;95.50;;;;;;5000654;28;20091;-91
2021/07/22 04:45:47;;;;;;;3.25;2.95;;;25.20;95.40;;;;;;5018995;28;20084;-91
2021/07/22 04:48:13;;;;;;;2.53;2.33;;;25.10;95.40;;;;;;4984266;28;20029;-93
2021/07/22 04:54:08;;;;;;;2.45;2.22;;;25.10;95.30;;;;;;5061338;28;20560;-93
2021/07/22 04:56:34;;;;;;;2.77;2.50;;;25.20;95.40;;;;;;5039144;28;20535;-91
2021/07/22 04:58:59;;;;;;;2.50;2.17;;;25.10;95.30;;;;;;5040020;28;20032;-91
2021/07/22 05:01:25;;;;;;;2.75;2.55;;;25.20;95.30;;;;;;5039144;28;20026;-92
2021/07/22 05:03:50;;;;;;;2.50;2.20;;;25.10;95.30;;;;;;5010315;28;20057;-93
2021/07/22 05:06:16;;;;;;;2.63;2.35;;;25.10;95.30;;;;;;5006638;28;20029;-93
2021/07/22 05:08:43;;;;;;;2.50;2.30;;;25.10;95.20;;;;;;5023018;28;20056;-91
2021/07/22 05:11:09;;;;;;;2.35;2.15;;;25.10;95.40;;;;;;5039096;28;20029;-91
2021/07/22 05:13:39;;;;;;;2.20;2.00;;;25.20;95.20;;;;;;5039092;28;20032;-91
2021/07/22 05:16:23;;;;;;;;;;;;;;;;;;;;;
2021/07/22 05:19:03;;;;;;;2.72;2.47;;;25.20;95.20;;;;;;5041579;28;20461;-96
2021/07/22 05:21:39;;;;;;;;;;;;;;;;;;;;;
2021/07/22 05:24:14;;;;;;;2.13;1.92;;;25.20;95.20;;;;;;5057439;28;20029;-95
2021/07/22 05:27:07;;;;;;;2.30;2.10;;;25.20;95.20;;;;;;5046942;28;20140;-95
2021/07/22 05:29:47;;;;;;;2.35;2.15;;;25.20;95.20;;;;;;5040259;28;20120;-94
2021/07/22 05:32:40;;;;;;;1.88;1.77;;;25.20;95.20;;;;;;5059329;28;20024;-95
2021/07/22 05:35:21;;;;;;;3.33;2.22;;;25.30;95.10;;;;;;5043345;28;20037;-94
2021/07/22 05:37:52;;;;;;;2.38;2.17;;;25.30;95.10;;;;;;5059906;28;20037;-95
2021/07/22 05:40:19;;;;;;;2.60;2.33;;;25.30;95.10;;;;;;5059187;28;20056;-95
2021/07/22 05:45:50;;;;;;;2.00;1.88;;;25.30;95.00;;;;;;5038471;28;20033;-94
2021/07/22 05:49:06;;;;;;;;;;;;;;;;;;;;;
2021/07/22 05:54:23;;;;;;;2.30;2.05;;;25.30;94.80;;;;;;5048828;28;20148;-93
2021/07/22 05:56:49;;;;;;;2.03;1.75;;;25.30;94.80;;;;;;5058644;28;20080;-94
2021/07/22 05:59:30;;;;;;;;;;;;;;;;;;;;;
2021/07/22 06:02:07;;;;;;;1.70;1.60;;;25.30;94.70;;;;;;5074773;28;20124;-95
2021/07/22 06:12:29;;;;;;;;;;;;;;;;;;;;;
2021/07/22 06:44:50;;;;;;;;;;;;;;;;;;;;;
2021/07/22 06:48:07;;;;;;;;;;;;;;;;;;;;;
2021/07/22 07:10:13;;;;;;;1.73;1.60;;;25.40;94.50;;;;;;4962467;24;20084;-94
2021/07/22 07:12:42;;;;;;;1.83;1.67;;;25.40;94.50;;;;;;4808731;29;20102;-93
2021/07/22 07:15:27;;;;;;;1.52;1.40;;;25.40;94.50;;;;;;4826307;29;20046;-94
2021/07/22 07:18:04;;;;;;;1.48;1.38;;;25.40;94.50;;;;;;4813807;29;20062;-94
2021/07/22 07:20:37;;;;;;;1.60;1.50;;;25.40;94.50;;;;;;4824716;29;20073;-95
2021/07/22 08:49:41;;;;;;;1.20;1.10;;;25.60;94.70;;;;;;4784839;30;20060;-96
2021/07/22 09:44:47;;;;;;;1.90;1.70;;;25.70;94.40;;;;;;4751862;29;20047;-94
2021/07/22 09:51:19;;;;;;;1.55;1.45;;;25.70;94.40;;;;;;4806109;29;20058;-96
2021/07/22 09:54:45;;;;;;;;;;;;;;;;;;;;;
2021/07/22 10:15:16;;;;;;;1.60;1.50;;;25.70;94.30;;;;;;4673377;30;20110;-96
2021/07/22 10:25:15;;;;;;;;;;;;;;;;;;;;;
2021/07/22 12:17:49;;;;;;;;;;;;;;;;;;;;;
2021/07/22 12:20:51;;;;;;;;;;;;;;;;;;;;;
2021/07/22 12:24:08;;;;;;;;;;;;;;;;;;;;;
2021/07/22 13:35:56;;;;;;;1.50;1.40;;;26.00;94.00;;;;;;4664555;24;19930;-89
2021/07/22 14:26:30;;;;;;;;;;;;;;;;;;;;;
2021/07/22 14:30:08;;;;;;;;;;;;;;;;;;;;;
2021/07/22 14:36:31;;;;;;;;;;;;;;;;;;;;;
2021/07/22 14:43:02;;;;;;;1.70;1.25;;;26.00;94.00;;;;;;4805587;29;20042;-96
2021/07/22 14:46:24;;;;;;;;;;;;;;;;;;;;;
2021/07/22 14:49:06;;;;;;;1.00;0.90;;;26.00;93.90;;;;;;4826863;29;20045;-94
2021/07/22 14:55:22;;;;;;;0.98;0.95;;;26.00;93.90;;;;;;4779411;29;20162;-94
2021/07/22 15:04:35;;;;;;;;;;;;;;;;;;;;;
2021/07/22 15:11:15;;;;;;;;;;;;;;;;;;;;;
2021/07/22 15:16:43;;;;;;;1.10;1.00;;;26.00;93.90;;;;;;4779860;30;20054;-94
2021/07/22 15:19:39;;;;;;;;;;;;;;;;;;;;;
2021/07/22 15:22:21;;;;;;;;;;;;;;;;;;;;;
2021/07/22 15:29:15;;;;;;;;;;;;;;;;;;;;;
2021/07/22 15:38:30;;;;;;;;;;;;;;;;;;;;;
2021/07/22 15:45:16;;;;;;;0.98;0.88;;;26.00;93.90;;;;;;4803399;30;20084;-96
2021/07/22 16:02:36;;;;;;;1.33;1.23;;;26.00;93.90;;;;;;4523577;31;20090;-90
2021/07/22 16:05:07;;;;;;;1.10;1.00;;;25.90;93.90;;;;;;4591595;31;20109;-90
2021/07/22 16:07:42;;;;;;;1.20;1.10;;;26.00;94.00;;;;;;4701613;30;20177;-91
2021/07/22 16:10:16;;;;;;;1.38;1.10;;;26.00;94.00;;;;;;4767638;30;20040;-91
2021/07/22 16:12:47;;;;;;;1.10;0.90;;;26.00;94.00;;;;;;4776183;29;20065;-91
2021/07/22 16:15:15;;;;;;;1.20;1.10;;;26.00;94.00;;;;;;4788360;29;20054;-91
2021/07/22 16:17:43;;;;;;;1.27;1.10;;;26.00;94.00;;;;;;4807410;29;20477;-90
2021/07/22 16:20:09;;;;;;;1.42;1.20;;;26.00;93.90;;;;;;4808131;29;20031;-90
2021/07/22 16:22:40;;;;;;;1.63;1.38;;;26.00;93.90;;;;;;4810453;29;20045;-91
2021/07/22 16:25:28;;;;;;;1.35;1.25;;;26.00;93.90;;;;;;4808305;29;20066;-92
2021/07/22 16:27:55;;;;;;;1.95;1.55;;;26.00;93.90;;;;;;4800907;29;20144;-91
2021/07/22 16:30:24;;;;;;;1.42;1.33;;;26.00;93.90;;;;;;4807841;29;20030;-90
2021/07/22 16:32:50;;;;;;;1.60;1.48;;;26.00;93.90;;;;;;4812751;29;20018;-89
2021/07/22 16:35:23;;;;;;;1.45;1.33;;;26.00;93.90;;;;;;4810880;29;20038;-91
2021/07/22 16:37:51;;;;;;;1.95;1.38;;;26.00;93.90;;;;;;4810990;29;20149;-90
2021/07/22 16:40:19;;;;;;;1.90;1.25;;;26.00;93.80;;;;;;4829947;29;20058;-90
2021/07/22 16:42:50;;;;;;;1.38;1.10;;;26.00;93.80;;;;;;4810617;29;20038;-90
2021/07/22 16:45:23;;;;;;;1.40;1.30;;;26.00;93.80;;;;;;4816900;29;20034;-92
2021/07/22 16:47:48;;;;;;;1.30;1.20;;;26.00;93.80;;;;;;4808649;29;20038;-91
2021/07/22 16:50:19;;;;;;;1.20;1.10;;;25.90;93.70;;;;;;4824879;29;20072;-91
2021/07/22 16:52:45;;;;;;;2.00;1.33;;;26.00;93.70;;;;;;4834674;29;20045;-91
2021/07/22 16:55:11;;;;;;;1.30;1.10;;;25.90;93.70;;;;;;4816324;29;20042;-89
2021/07/22 16:57:41;;;;;;;2.50;1.80;;;26.00;93.70;;;;;;4822953;29;20074;-90
2021/07/22 17:00:12;;;;;;;1.20;1.02;;;25.90;93.70;;;;;;4830561;29;20027;-89
2021/07/22 17:02:41;;;;;;;1.42;1.23;;;26.00;93.70;;;;;;4822057;29;20101;-91
2021/07/22 17:05:11;;;;;;;1.58;1.15;;;25.90;93.60;;;;;;4837555;29;20087;-90
2021/07/22 17:07:55;;;;;;;1.30;1.20;;;25.90;93.60;;;;;;4834971;29;20027;-90
2021/07/22 17:10:23;;;;;;;1.70;1.42;;;25.90;93.60;;;;;;4820891;29;20034;-91
2021/07/22 17:13:01;;;;;;;1.25;1.15;;;25.90;93.60;;;;;;4821913;29;20058;-93
2021/07/22 17:15:42;;;;;;;;;;;;;;;;;;;;;
2021/07/22 17:18:10;;;;;;;1.40;1.20;;;25.90;93.50;;;;;;4845467;29;20057;-89
2021/07/22 17:20:39;;;;;;;1.55;1.20;;;25.90;93.50;;;;;;4831153;29;20162;-90
2021/07/22 17:23:08;;;;;;;1.20;1.10;;;25.90;93.70;;;;;;4830820;29;20082;-91
2021/07/22 17:25:39;;;;;;;1.20;1.10;;;25.90;93.50;;;;;;4831323;29;20103;-90
2021/07/22 19:51:45;;;;;;;;;;;;;;;;;;;;;
